Time;durP1;ratioP1;P1;durP2;ratioP2;P2;SDS_P1;SDS_P2;PMS_P1;PMS_P2;Temp;Humidity;BMP_temperature;BMP_pressure;BME280_temperature;BME280_humidity;BME280_pressure;Samples;Min_cycle;Max_cycle;Signal;HPM_P1;HPM_P2
2024/01/02 00:01:25;;;;;;;1999.90;999.90;;;5.40;99.90;;;;;;5007038;28;20065;-83
2024/01/02 00:03:51;;;;;;;1999.90;999.90;;;5.80;99.90;;;;;;4997713;28;20089;-84
2024/01/02 00:06:22;;;;;;;1999.90;999.90;;;5.20;99.90;;;;;;4990332;28;20034;-84
2024/01/02 00:08:48;;;;;;;1999.90;999.90;;;5.40;99.90;;;;;;4997068;28;20065;-85
2024/01/02 00:11:14;;;;;;;1999.90;999.90;;;5.40;99.90;;;;;;4989675;28;20042;-84
2024/01/02 00:13:45;;;;;;;1999.90;999.90;;;5.40;99.90;;;;;;5012934;28;20074;-84
2024/01/02 00:16:11;;;;;;;1999.90;999.90;;;5.50;99.90;;;;;;5017197;28;20276;-84
2024/01/02 00:18:36;;;;;;;1999.90;999.90;;;5.50;99.90;;;;;;4997912;28;20057;-83
2024/01/02 00:21:05;;;;;;;1999.90;999.90;;;6.50;99.90;;;;;;5000531;28;20042;-85
2024/01/02 00:23:31;;;;;;;1999.90;999.90;;;5.50;99.90;;;;;;4992315;28;20074;-84
2024/01/02 00:25:57;;;;;;;1999.90;999.90;;;5.60;99.90;;;;;;4994957;28;20050;-84
2024/01/02 00:28:23;;;;;;;1999.90;999.90;;;5.60;99.90;;;;;;4996790;28;20069;-83
2024/01/02 00:30:52;;;;;;;1999.90;999.90;;;5.60;99.90;;;;;;5011868;28;20035;-83
2024/01/02 00:33:17;;;;;;;1999.90;999.90;;;5.60;99.90;;;;;;5023840;28;20045;-83
2024/01/02 00:35:44;;;;;;;1999.90;999.90;;;6.50;99.90;;;;;;4989331;28;20450;-83
2024/01/02 00:38:13;;;;;;;1999.90;999.90;;;6.40;99.90;;;;;;5009816;28;20129;-84
2024/01/02 00:40:42;;;;;;;1999.90;999.90;;;5.40;99.90;;;;;;5012992;28;20033;-84
2024/01/02 00:43:09;;;;;;;1999.90;999.90;;;5.70;99.90;;;;;;4995840;28;20116;-84
2024/01/02 00:45:35;;;;;;;1999.90;999.90;;;5.70;99.90;;;;;;4997330;28;20469;-84
2024/01/02 00:48:00;;;;;;;1999.90;999.90;;;5.70;99.90;;;;;;4988529;28;20061;-84
2024/01/02 00:50:26;;;;;;;1999.90;999.90;;;5.70;99.90;;;;;;5006258;28;20046;-83
2024/01/02 00:52:56;;;;;;;1999.90;999.90;;;5.70;99.90;;;;;;5010121;28;20113;-83
2024/01/02 00:55:21;;;;;;;1999.90;999.90;;;5.70;99.90;;;;;;5010692;28;20045;-84
2024/01/02 00:57:48;;;;;;;1999.90;999.90;;;6.20;99.90;;;;;;5015770;28;20035;-84
2024/01/02 01:00:14;;;;;;;1999.90;999.90;;;6.20;99.90;;;;;;5013907;28;20038;-84
2024/01/02 01:02:39;;;;;;;1999.90;999.90;;;5.80;99.90;;;;;;4994463;28;20041;-84
2024/01/02 01:05:07;;;;;;;1999.90;999.90;;;6.90;99.90;;;;;;5015612;28;20038;-83
2024/01/02 01:07:34;;;;;;;1999.90;999.90;;;5.80;99.90;;;;;;5019688;28;20522;-83
2024/01/02 01:10:05;;;;;;;1999.90;999.90;;;5.80;99.90;;;;;;5022614;28;20034;-83
2024/01/02 01:12:32;;;;;;;1999.90;999.90;;;5.80;99.90;;;;;;5020797;28;20034;-83
2024/01/02 01:14:58;;;;;;;1999.90;999.90;;;5.80;99.90;;;;;;5015093;28;20046;-83
2024/01/02 01:17:26;;;;;;;1999.90;999.90;;;6.30;99.90;;;;;;5013974;28;20166;-83
2024/01/02 01:19:52;;;;;;;1999.90;999.90;;;5.80;99.90;;;;;;5013316;28;20057;-83
2024/01/02 01:22:17;;;;;;;1999.90;999.90;;;5.80;99.90;;;;;;4998209;28;20053;-82
2024/01/02 01:24:43;;;;;;;1999.90;999.90;;;5.80;99.90;;;;;;4996652;28;20069;-83
2024/01/02 01:27:09;;;;;;;1999.90;999.90;;;5.80;99.90;;;;;;4994238;28;20625;-82
2024/01/02 01:29:38;;;;;;;1999.90;999.90;;;5.90;99.90;;;;;;5019181;28;20041;-83
2024/01/02 01:32:05;;;;;;;1999.90;999.90;;;5.90;99.90;;;;;;5021421;28;20033;-83
2024/01/02 01:34:31;;;;;;;1999.90;999.90;;;5.90;99.90;;;;;;5000130;28;20053;-82
2024/01/02 01:36:56;;;;;;;1999.90;999.90;;;5.90;99.90;;;;;;5012226;28;20054;-82
2024/01/02 01:39:25;;;;;;;1999.90;999.90;;;5.90;99.90;;;;;;5012244;28;20036;-82
2024/01/02 01:41:50;;;;;;;1999.90;999.90;;;5.90;99.90;;;;;;4990423;28;20133;-82
2024/01/02 01:44:18;;;;;;;1999.90;999.90;;;5.90;99.90;;;;;;4997530;28;20030;-83
2024/01/02 01:46:45;;;;;;;1999.90;999.90;;;5.90;99.90;;;;;;4995315;28;20042;-83
2024/01/02 01:49:11;;;;;;;1999.90;999.90;;;6.00;99.90;;;;;;5011632;28;20038;-82
2024/01/02 01:51:40;;;;;;;1999.90;999.90;;;6.40;99.90;;;;;;4991567;28;20406;-83
2024/01/02 01:54:06;;;;;;;1999.90;999.90;;;6.00;99.90;;;;;;5010029;28;20034;-82
2024/01/02 01:56:32;;;;;;;1999.90;999.90;;;6.00;99.90;;;;;;5011339;28;20034;-82
2024/01/02 01:58:59;;;;;;;1999.90;999.90;;;6.00;99.90;;;;;;4995769;28;20388;-82
2024/01/02 02:01:28;;;;;;;1999.90;999.90;;;6.50;99.90;;;;;;5008768;28;20042;-83
2024/01/02 02:03:56;;;;;;;1999.90;999.90;;;6.60;99.90;;;;;;4997133;28;20175;-82
2024/01/02 02:06:22;;;;;;;1999.90;999.90;;;6.00;99.90;;;;;;5018307;28;20101;-82
2024/01/02 02:08:49;;;;;;;1999.90;999.90;;;6.40;99.90;;;;;;5010600;28;20104;-83
2024/01/02 02:11:14;;;;;;;1999.90;999.90;;;6.10;99.90;;;;;;5005098;28;20138;-83
2024/01/02 02:13:41;;;;;;;1999.90;999.90;;;6.10;99.90;;;;;;4995558;28;20595;-83
2024/01/02 02:16:07;;;;;;;1999.90;999.90;;;6.70;99.90;;;;;;5008716;28;20140;-82
2024/01/02 02:18:32;;;;;;;1999.90;999.90;;;7.10;99.90;;;;;;5012007;28;20057;-82
2024/01/02 02:20:58;;;;;;;1999.90;999.90;;;6.20;99.90;;;;;;5010541;28;20101;-82
2024/01/02 02:23:24;;;;;;;1999.90;999.90;;;6.90;99.90;;;;;;4997929;28;20501;-83
2024/01/02 02:25:52;;;;;;;1999.90;999.90;;;6.20;99.90;;;;;;5013045;28;20027;-82
2024/01/02 02:28:18;;;;;;;1999.90;999.90;;;6.20;99.90;;;;;;5000123;28;20042;-82
2024/01/02 02:30:46;;;;;;;1999.90;999.90;;;6.20;99.90;;;;;;5001527;28;20101;-83
2024/01/02 02:33:12;;;;;;;1999.90;999.90;;;7.10;99.90;;;;;;4994480;28;20077;-84
2024/01/02 02:35:38;;;;;;;1999.90;999.90;;;6.20;99.90;;;;;;4994624;28;20518;-83
2024/01/02 02:38:06;;;;;;;1999.90;999.90;;;6.30;99.90;;;;;;4992419;28;20117;-82
2024/01/02 02:40:32;;;;;;;1999.90;999.90;;;6.30;99.90;;;;;;5015836;28;20078;-82
2024/01/02 02:42:57;;;;;;;1999.90;999.90;;;6.30;99.90;;;;;;4996111;28;20061;-83
2024/01/02 02:45:23;;;;;;;1999.90;999.90;;;6.30;99.90;;;;;;4991878;28;20073;-83
2024/01/02 02:47:49;;;;;;;1999.90;999.90;;;6.90;99.90;;;;;;5007184;28;20074;-83
2024/01/02 02:50:15;;;;;;;1999.90;999.90;;;6.30;99.90;;;;;;4995233;28;20061;-83
2024/01/02 02:52:41;;;;;;;1999.90;999.90;;;6.30;99.90;;;;;;4998162;28;20034;-82
2024/01/02 02:55:07;;;;;;;1999.90;999.90;;;7.00;99.90;;;;;;4992045;28;20061;-83
2024/01/02 02:57:33;;;;;;;1999.90;999.90;;;6.30;99.90;;;;;;5017679;28;20030;-83
2024/01/02 03:00:00;;;;;;;1999.90;999.90;;;6.30;99.90;;;;;;5015581;28;20089;-82
2024/01/02 03:02:25;;;;;;;1999.90;999.90;;;6.30;99.90;;;;;;5003744;28;20046;-83
2024/01/02 03:04:54;;;;;;;1999.90;999.90;;;6.30;99.90;;;;;;5012357;28;20505;-82
2024/01/02 03:07:19;;;;;;;1999.90;999.90;;;6.40;99.90;;;;;;5011705;28;20057;-82
2024/01/02 03:09:45;;;;;;;1999.90;999.90;;;6.80;99.90;;;;;;5007084;28;20062;-82
2024/01/02 03:12:12;;;;;;;1999.90;999.90;;;6.40;99.90;;;;;;4994462;28;20121;-82
2024/01/02 03:14:38;;;;;;;1999.90;999.90;;;6.30;99.90;;;;;;4990646;28;20046;-82
2024/01/02 03:17:04;;;;;;;1999.90;999.90;;;6.50;99.90;;;;;;5007512;28;20046;-82
2024/01/02 03:19:31;;;;;;;1999.90;999.90;;;6.40;99.90;;;;;;5010398;28;20085;-83
2024/01/02 03:21:57;;;;;;;1999.90;999.90;;;7.20;99.90;;;;;;4993192;28;20034;-82
2024/01/02 03:24:25;;;;;;;1999.90;999.90;;;6.40;99.90;;;;;;4976780;28;20473;-82
2024/01/02 03:26:51;;;;;;;1999.90;999.90;;;6.80;99.90;;;;;;4996088;28;20042;-82
2024/01/02 03:29:21;;;;;;;1999.90;999.90;;;6.40;99.90;;;;;;5001216;28;20093;-82
2024/01/02 03:31:46;;;;;;;1999.90;999.90;;;6.30;99.90;;;;;;5023921;28;20069;-83
2024/01/02 03:34:15;;;;;;;1999.90;999.90;;;6.40;99.90;;;;;;4986216;28;20038;-83
2024/01/02 03:36:41;;;;;;;1999.90;999.90;;;6.80;99.90;;;;;;5011529;28;20072;-81
2024/01/02 03:39:08;;;;;;;1999.90;999.90;;;6.30;99.90;;;;;;5007253;28;20117;-82
2024/01/02 03:41:36;;;;;;;1999.90;999.90;;;6.30;99.90;;;;;;5012223;28;20643;-82
2024/01/02 03:44:03;;;;;;;1999.90;999.90;;;7.30;99.90;;;;;;4992296;28;20069;-83
2024/01/02 03:46:28;;;;;;;1999.90;999.90;;;6.30;99.90;;;;;;5009227;28;20068;-82
2024/01/02 03:48:54;;;;;;;1999.90;999.90;;;6.30;99.90;;;;;;5019461;28;20045;-82
2024/01/02 03:51:23;;;;;;;1999.90;999.90;;;6.40;99.90;;;;;;4997163;28;20034;-82
2024/01/02 03:53:51;;;;;;;1999.90;999.90;;;6.90;99.90;;;;;;5021897;28;20037;-82
2024/01/02 03:56:18;;;;;;;1999.90;999.90;;;6.40;99.90;;;;;;5018827;28;20038;-82
2024/01/02 03:58:44;;;;;;;1999.90;999.90;;;6.40;99.90;;;;;;5006656;28;20046;-83
2024/01/02 04:01:11;;;;;;;1999.90;999.90;;;7.20;99.90;;;;;;4987470;28;20070;-82
2024/01/02 04:03:36;;;;;;;1999.90;999.90;;;6.40;99.90;;;;;;4993469;28;20034;-82
2024/01/02 04:06:02;;;;;;;1999.90;999.90;;;6.40;99.90;;;;;;5009910;28;20048;-83
2024/01/02 04:08:28;;;;;;;1999.90;999.90;;;6.30;99.90;;;;;;5000165;28;20414;-82
2024/01/02 04:10:53;;;;;;;1999.90;999.90;;;6.90;99.90;;;;;;4996016;28;20065;-83
2024/01/02 04:13:21;;;;;;;1999.90;999.90;;;6.30;99.90;;;;;;4992712;28;20048;-83
2024/01/02 04:15:50;;;;;;;1999.90;999.90;;;6.40;99.90;;;;;;5014758;28;20045;-82
2024/01/02 04:18:15;;;;;;;1999.90;999.90;;;6.40;99.90;;;;;;5012963;28;20054;-82
2024/01/02 04:20:44;;;;;;;1999.90;999.90;;;6.30;99.90;;;;;;5015000;28;20038;-82
2024/01/02 04:23:10;;;;;;;1999.90;999.90;;;6.90;99.90;;;;;;5019479;28;20073;-82
2024/01/02 04:25:35;;;;;;;1999.90;999.90;;;7.40;99.90;;;;;;4992010;28;20054;-83
2024/01/02 04:28:05;;;;;;;1999.90;999.90;;;6.30;99.90;;;;;;5019211;28;20061;-82
2024/01/02 04:30:31;;;;;;;1999.90;999.90;;;6.30;99.90;;;;;;5021389;28;20048;-82
2024/01/02 04:32:58;;;;;;;1999.90;999.90;;;6.40;99.90;;;;;;5020092;28;20043;-82
2024/01/02 04:35:23;;;;;;;1999.90;999.90;;;6.40;99.90;;;;;;4996877;28;20041;-82
2024/01/02 04:37:50;;;;;;;1999.90;999.90;;;6.40;99.90;;;;;;4993411;28;20046;-81
2024/01/02 04:40:16;;;;;;;1999.90;999.90;;;6.40;99.90;;;;;;4997370;28;20061;-82
2024/01/02 04:42:42;;;;;;;1999.90;999.90;;;6.30;99.90;;;;;;5014055;28;20534;-83
2024/01/02 04:45:09;;;;;;;1999.90;999.90;;;7.00;99.90;;;;;;5006906;28;20133;-83
2024/01/02 04:47:35;;;;;;;1999.90;999.90;;;6.40;99.90;;;;;;5024344;28;20049;-82
2024/01/02 04:50:01;;;;;;;1999.90;999.90;;;6.40;99.90;;;;;;5005003;28;20037;-82
2024/01/02 04:52:29;;;;;;;1999.90;999.90;;;6.40;99.90;;;;;;4993315;28;20038;-82
2024/01/02 04:54:57;;;;;;;1999.90;999.90;;;6.40;99.90;;;;;;5016418;28;20096;-81
2024/01/02 04:57:24;;;;;;;1999.90;999.90;;;6.40;99.90;;;;;;4996426;28;20038;-81
2024/01/02 04:59:49;;;;;;;1999.90;999.90;;;6.50;99.90;;;;;;4983834;28;20038;-82
2024/01/02 05:02:22;;;;;;;1999.90;999.90;;;6.40;99.90;;;;;;5014929;28;20065;-81
2024/01/02 05:04:50;;;;;;;1999.90;999.90;;;6.60;99.90;;;;;;5010151;28;20459;-82
2024/01/02 05:07:17;;;;;;;1999.90;999.90;;;6.60;99.90;;;;;;5011021;28;20120;-82
2024/01/02 05:09:50;;;;;;;1999.90;999.90;;;6.40;99.90;;;;;;5016357;28;20037;-82
2024/01/02 05:12:17;;;;;;;1999.90;999.90;;;6.30;99.90;;;;;;5016358;28;20693;-81
2024/01/02 05:14:44;;;;;;;1999.90;999.90;;;7.10;99.90;;;;;;4992280;28;20066;-82
2024/01/02 05:17:10;;;;;;;1999.90;999.90;;;6.50;99.90;;;;;;4999648;28;20046;-81
2024/01/02 05:19:36;;;;;;;1999.90;999.90;;;7.00;99.90;;;;;;4998818;28;20388;-82
2024/01/02 05:22:03;;;;;;;1999.90;999.90;;;6.40;99.90;;;;;;4998757;28;20069;-81
2024/01/02 05:24:32;;;;;;;1999.90;999.90;;;6.40;99.90;;;;;;5020315;28;20038;-82
2024/01/02 05:27:02;;;;;;;1999.90;999.90;;;6.90;99.90;;;;;;4993659;28;20074;-81
2024/01/02 05:29:27;;;;;;;1999.90;999.90;;;6.40;99.90;;;;;;5002976;28;20574;-82
2024/01/02 05:31:53;;;;;;;1999.90;999.90;;;6.40;99.90;;;;;;4996437;28;20034;-83
2024/01/02 05:34:19;;;;;;;1999.90;999.90;;;6.30;99.90;;;;;;5016212;28;20042;-81
2024/01/02 05:36:46;;;;;;;1999.90;999.90;;;6.00;99.90;;;;;;5016712;28;20053;-82
2024/01/02 05:39:13;;;;;;;1999.90;999.90;;;7.20;99.90;;;;;;5000016;28;20109;-82
2024/01/02 05:41:42;;;;;;;1999.90;999.90;;;6.80;99.90;;;;;;5020295;28;20070;-81
2024/01/02 05:44:09;;;;;;;1999.90;999.90;;;6.70;99.90;;;;;;5016943;28;20117;-82
2024/01/02 05:46:38;;;;;;;1999.90;999.90;;;6.40;99.90;;;;;;4995843;28;20041;-82
2024/01/02 05:49:03;;;;;;;1999.90;999.90;;;6.40;99.90;;;;;;5013565;28;20034;-83
2024/01/02 05:51:29;;;;;;;1999.90;999.90;;;6.40;99.90;;;;;;4998019;28;20045;-81
2024/01/02 05:53:55;;;;;;;1999.90;999.90;;;6.50;99.90;;;;;;4994754;28;20093;-82
2024/01/02 05:56:21;;;;;;;1999.90;999.90;;;6.40;99.90;;;;;;4980210;28;20052;-82
2024/01/02 05:58:49;;;;;;;1999.90;999.90;;;6.40;99.90;;;;;;4997526;28;20046;-81
2024/01/02 06:01:21;;;;;;;1999.90;999.90;;;6.40;99.90;;;;;;5013935;28;20069;-82
2024/01/02 06:03:48;;;;;;;1999.90;999.90;;;6.40;99.90;;;;;;4992126;28;20114;-82
2024/01/02 06:06:13;;;;;;;1999.90;999.90;;;6.50;99.90;;;;;;5004411;28;20113;-82
2024/01/02 06:08:42;;;;;;;1999.90;999.90;;;6.50;99.90;;;;;;5011037;28;20077;-82
2024/01/02 06:11:10;;;;;;;1999.90;999.90;;;6.60;99.90;;;;;;4992065;28;20066;-82
2024/01/02 06:13:35;;;;;;;1999.90;999.90;;;6.50;99.90;;;;;;4991009;28;20042;-82
2024/01/02 06:16:01;;;;;;;1999.90;999.90;;;7.10;99.90;;;;;;4991133;28;20034;-82
2024/01/02 06:18:27;;;;;;;1999.90;999.90;;;6.50;99.90;;;;;;5009207;28;20062;-82
2024/01/02 06:20:52;;;;;;;1999.90;999.90;;;6.50;99.90;;;;;;4995225;28;20069;-82
2024/01/02 06:23:18;;;;;;;1999.90;999.90;;;6.50;99.90;;;;;;5008021;28;20034;-82
2024/01/02 06:25:43;;;;;;;1999.90;999.90;;;6.50;99.90;;;;;;4993669;28;20041;-82
2024/01/02 06:28:09;;;;;;;1999.90;999.90;;;6.50;99.90;;;;;;5002276;28;20045;-82
2024/01/02 06:30:35;;;;;;;1999.90;999.90;;;7.40;99.90;;;;;;5024166;28;20048;-82
2024/01/02 06:33:03;;;;;;;1999.90;999.90;;;6.50;99.90;;;;;;5022491;28;20042;-82
2024/01/02 06:35:29;;;;;;;1999.90;999.90;;;6.50;99.90;;;;;;5006266;28;20392;-81
2024/01/02 06:37:55;;;;;;;1999.90;999.90;;;6.90;99.90;;;;;;4988730;28;20414;-83
2024/01/02 06:40:20;;;;;;;1999.90;999.90;;;6.50;99.90;;;;;;4999507;28;20061;-83
2024/01/02 06:42:46;;;;;;;1999.90;999.90;;;6.50;99.90;;;;;;4987473;28;20057;-83
2024/01/02 06:45:14;;;;;;;1999.90;999.90;;;6.50;99.90;;;;;;5003796;28;20037;-82
2024/01/02 06:47:40;;;;;;;1999.90;999.90;;;6.50;99.90;;;;;;5003172;28;20049;-82
2024/01/02 06:50:06;;;;;;;1999.90;999.90;;;6.50;99.90;;;;;;4988649;28;20042;-82
2024/01/02 06:52:32;;;;;;;1999.90;999.90;;;6.50;99.90;;;;;;5004181;28;20125;-82
2024/01/02 06:54:57;;;;;;;1999.90;999.90;;;6.90;99.90;;;;;;5003206;28;20077;-82
2024/01/02 06:57:23;;;;;;;1999.90;999.90;;;6.50;99.90;;;;;;5006866;28;20046;-82
2024/01/02 06:59:48;;;;;;;1999.90;999.90;;;6.70;99.90;;;;;;5008339;28;20041;-82
2024/01/02 07:02:14;;;;;;;1999.90;999.90;;;6.60;99.90;;;;;;5005316;28;20042;-82
2024/01/02 07:04:40;;;;;;;1999.90;999.90;;;6.60;99.90;;;;;;5007898;28;20502;-82
2024/01/02 07:07:05;;;;;;;1999.90;999.90;;;6.50;99.90;;;;;;5006510;28;20041;-82
2024/01/02 07:09:31;;;;;;;1999.90;999.90;;;6.60;99.90;;;;;;4993938;28;20045;-82
2024/01/02 07:11:58;;;;;;;1999.90;999.90;;;6.60;99.90;;;;;;5006594;28;20154;-82
2024/01/02 07:14:24;;;;;;;1999.90;999.90;;;6.60;99.90;;;;;;5009375;28;20042;-82
2024/01/02 07:16:50;;;;;;;1999.90;999.90;;;6.60;99.90;;;;;;4997031;28;20483;-82
2024/01/02 07:19:16;;;;;;;1999.90;999.90;;;6.60;99.90;;;;;;5012603;28;20134;-82
2024/01/02 07:21:41;;;;;;;1999.90;999.90;;;7.20;99.90;;;;;;5013408;28;20315;-82
2024/01/02 07:24:08;;;;;;;1999.90;999.90;;;6.60;99.90;;;;;;5025879;28;20046;-82
2024/01/02 07:26:34;;;;;;;1999.90;999.90;;;6.70;99.90;;;;;;5014798;28;20136;-82
2024/01/02 07:29:00;;;;;;;1999.90;999.90;;;6.70;99.90;;;;;;5015372;28;20118;-82
2024/01/02 07:31:26;;;;;;;1999.90;999.90;;;6.70;99.90;;;;;;5004831;28;20070;-82
2024/01/02 07:33:51;;;;;;;1999.90;999.90;;;7.10;99.90;;;;;;5008298;28;20046;-82
2024/01/02 07:36:18;;;;;;;1999.90;999.90;;;6.70;99.90;;;;;;4988427;28;20045;-82
2024/01/02 07:38:44;;;;;;;1999.90;999.90;;;6.60;99.90;;;;;;4974863;28;20180;-83
2024/01/02 07:41:11;;;;;;;1999.90;999.90;;;6.70;99.90;;;;;;4976434;28;20051;-82
2024/01/02 07:43:43;;;;;;;1999.90;999.90;;;7.70;99.90;;;;;;5014358;28;20515;-82
2024/01/02 07:46:08;;;;;;;1999.90;999.90;;;6.80;99.90;;;;;;5008576;28;20110;-82
2024/01/02 07:48:34;;;;;;;1999.90;999.90;;;6.80;99.90;;;;;;5008923;28;20042;-84
2024/01/02 07:51:00;;;;;;;1999.90;999.90;;;6.80;99.90;;;;;;5011609;28;20037;-83
2024/01/02 07:53:25;;;;;;;1999.90;999.90;;;6.90;99.90;;;;;;5014167;28;20045;-83
2024/01/02 07:55:51;;;;;;;1999.90;999.90;;;6.90;99.90;;;;;;4997858;28;20041;-83
2024/01/02 07:58:16;;;;;;;1999.90;999.90;;;7.60;99.90;;;;;;4996109;28;20100;-82
2024/01/02 08:00:42;;;;;;;1999.90;999.90;;;7.00;99.90;;;;;;5010878;28;20561;-83
2024/01/02 08:03:09;;;;;;;1999.90;999.90;;;7.00;99.90;;;;;;4996082;28;20034;-83
2024/01/02 08:05:36;;;;;;;1999.90;999.90;;;7.00;99.90;;;;;;4993721;28;20038;-84
2024/01/02 08:08:02;;;;;;;1999.90;999.90;;;7.00;99.90;;;;;;4997531;28;20553;-83
2024/01/02 08:10:28;;;;;;;1999.90;999.90;;;7.10;99.90;;;;;;4995105;28;20093;-83
2024/01/02 08:12:54;;;;;;;1999.90;999.90;;;7.10;99.90;;;;;;4996067;28;20042;-83
2024/01/02 08:15:20;;;;;;;1999.90;999.90;;;7.30;99.90;;;;;;4999064;28;20041;-83
2024/01/02 08:17:46;;;;;;;1999.90;999.90;;;7.20;99.90;;;;;;5001563;28;20038;-83
2024/01/02 08:20:12;;;;;;;1999.90;999.90;;;8.00;99.90;;;;;;5012003;28;20057;-83
2024/01/02 08:22:40;;;;;;;1999.90;999.90;;;7.20;99.90;;;;;;5022766;28;20061;-83
2024/01/02 08:25:08;;;;;;;1999.90;999.90;;;7.30;99.90;;;;;;5018703;28;20054;-83
2024/01/02 08:27:34;;;;;;;1999.90;999.90;;;7.40;99.90;;;;;;5003832;28;20034;-83
2024/01/02 08:30:01;;;;;;;1999.90;999.90;;;7.50;99.90;;;;;;4992651;28;20124;-83
2024/01/02 08:32:28;;;;;;;1999.90;999.90;;;7.60;99.90;;;;;;5005613;28;20042;-84
2024/01/02 08:34:54;;;;;;;1999.90;999.90;;;7.90;99.90;;;;;;5008192;28;20041;-83
2024/01/02 08:37:20;;;;;;;1999.90;999.90;;;7.60;99.90;;;;;;4993398;28;20726;-83
2024/01/02 08:39:45;;;;;;;1999.90;999.90;;;7.60;99.90;;;;;;5006204;28;20106;-83
2024/01/02 08:42:11;;;;;;;1999.90;999.90;;;7.70;99.90;;;;;;5007561;28;20038;-83
2024/01/02 08:44:37;;;;;;;1999.90;999.90;;;7.70;99.90;;;;;;4992601;28;20042;-83
2024/01/02 08:47:05;;;;;;;1999.90;999.90;;;8.10;99.90;;;;;;5013395;28;20038;-84
2024/01/02 08:49:31;;;;;;;1999.90;999.90;;;7.80;99.90;;;;;;4991884;28;20034;-84
2024/01/02 08:51:56;;;;;;;1999.90;999.90;;;7.90;99.90;;;;;;4978980;28;20034;-84
2024/01/02 08:54:22;;;;;;;1999.90;999.90;;;8.00;99.90;;;;;;4992156;28;20115;-84
2024/01/02 08:56:48;;;;;;;1999.90;999.90;;;8.10;99.90;;;;;;4995475;28;20466;-84
2024/01/02 08:59:23;;;;;;;1999.90;999.90;;;8.20;99.90;;;;;;4993801;28;20125;-84
2024/01/02 09:01:51;;;;;;;1999.90;999.90;;;9.10;99.90;;;;;;4995474;28;20065;-83
2024/01/02 09:04:18;;;;;;;1999.90;999.90;;;8.90;99.90;;;;;;4997702;28;20065;-83
2024/01/02 09:06:45;;;;;;;1999.90;999.90;;;8.40;99.90;;;;;;5011868;28;20042;-83
2024/01/02 09:09:10;;;;;;;1999.90;999.90;;;8.80;99.90;;;;;;4995930;28;20042;-83
2024/01/02 09:11:37;;;;;;;1999.90;999.90;;;8.60;99.90;;;;;;4999290;28;20048;-84
2024/01/02 09:14:03;;;;;;;1999.90;999.90;;;9.20;99.90;;;;;;5026705;28;20021;-84
2024/01/02 09:16:32;;;;;;;1999.90;999.90;;;8.80;99.90;;;;;;5010637;28;20121;-84
2024/01/02 09:18:58;;;;;;;1999.90;999.90;;;9.50;99.90;;;;;;5001815;28;20058;-84
2024/01/02 09:21:25;;;;;;;1999.90;999.90;;;9.00;99.90;;;;;;4993283;28;20037;-85
2024/01/02 09:23:50;;;;;;;1999.90;999.90;;;9.50;99.90;;;;;;4992102;28;20036;-84
2024/01/02 09:26:22;;;;;;;1999.90;999.90;;;9.00;99.90;;;;;;4984647;28;20574;-84
2024/01/02 09:28:48;;;;;;;1999.90;999.90;;;9.10;99.90;;;;;;4996045;28;20038;-84
2024/01/02 09:31:14;;;;;;;1999.90;999.90;;;9.10;99.90;;;;;;5007167;28;20085;-84
2024/01/02 09:33:42;;;;;;;1999.90;999.90;;;9.20;99.90;;;;;;5005642;28;20046;-84
2024/01/02 09:36:15;;;;;;;1999.90;999.90;;;9.30;99.90;;;;;;5002138;28;20038;-83
2024/01/02 09:38:40;;;;;;;1999.90;999.90;;;9.30;99.90;;;;;;4998253;28;20231;-79
2024/01/02 09:41:21;;;;;;;1999.90;999.90;;;9.50;99.90;;;;;;5012034;28;20034;-80
2024/01/02 09:44:13;;;;;;;1999.90;999.90;;;9.30;99.90;;;;;;4986233;28;20390;-81
2024/01/02 09:47:12;;;;;;;1999.90;999.90;;;9.40;99.90;;;;;;4974480;28;20053;-79
2024/01/02 09:49:56;;;;;;;1999.90;999.90;;;9.40;99.90;;;;;;5005714;28;20205;-80
2024/01/02 09:52:40;;;;;;;1999.90;999.90;;;9.40;99.90;;;;;;5002768;28;20046;-79
2024/01/02 09:55:27;;;;;;;1999.90;999.90;;;9.50;99.90;;;;;;5006520;28;20557;-79
2024/01/02 09:58:02;;;;;;;1999.90;999.90;;;9.40;99.90;;;;;;4999320;28;20097;-80
2024/01/02 10:00:59;;;;;;;1999.90;999.90;;;9.50;99.90;;;;;;5006180;28;20068;-80
2024/01/02 10:04:02;;;;;;;1999.90;999.90;;;9.50;99.90;;;;;;5005931;28;20040;-80
2024/01/02 10:06:57;;;;;;;1999.90;999.90;;;9.60;99.90;;;;;;4961575;28;20053;-79
2024/01/02 10:09:44;;;;;;;1999.90;999.90;;;9.60;99.90;;;;;;5008322;28;20065;-79
2024/01/02 10:12:12;;;;;;;1999.90;999.90;;;9.70;99.90;;;;;;5006881;28;20061;-79
2024/01/02 10:14:48;;;;;;;1999.90;999.90;;;9.70;99.90;;;;;;5001316;28;20042;-79
2024/01/02 10:17:28;;;;;;;1999.90;999.90;;;9.70;99.90;;;;;;5009796;28;20041;-79
2024/01/02 10:20:12;;;;;;;1999.90;999.90;;;9.80;99.90;;;;;;5005541;28;20450;-80
2024/01/02 10:22:59;;;;;;;1999.90;999.90;;;9.80;99.90;;;;;;4987398;28;20057;-79
2024/01/02 10:25:28;;;;;;;1999.90;999.90;;;9.80;99.90;;;;;;5019312;28;20040;-79
2024/01/02 10:28:13;;;;;;;1999.90;999.90;;;9.90;99.90;;;;;;4990260;28;20046;-80
2024/01/02 10:31:02;;;;;;;1999.90;999.90;;;9.90;99.90;;;;;;4987019;28;20042;-81
2024/01/02 10:33:36;;;;;;;1999.90;999.90;;;9.90;99.90;;;;;;4992340;28;20455;-80
2024/01/02 10:36:09;;;;;;;1999.90;999.90;;;10.00;99.90;;;;;;5009638;28;20034;-79
2024/01/02 10:39:22;;;;;;;1999.90;999.90;;;10.00;99.90;;;;;;4988683;28;20042;-80
2024/01/02 10:42:00;;;;;;;1999.90;999.90;;;10.00;99.90;;;;;;4987275;28;20042;-80
2024/01/02 10:44:42;;;;;;;1999.90;999.90;;;10.00;99.90;;;;;;5004169;28;20042;-80
2024/01/02 10:47:29;;;;;;;1999.90;999.90;;;10.00;99.90;;;;;;4989723;28;20091;-80
2024/01/02 10:50:04;;;;;;;1999.90;999.90;;;10.10;99.90;;;;;;4996072;28;20399;-80
2024/01/02 10:53:05;;;;;;;1999.90;999.90;;;10.10;99.90;;;;;;5008630;28;20046;-79
2024/01/02 10:55:50;;;;;;;1999.90;999.90;;;10.10;99.90;;;;;;4959622;28;20046;-79
2024/01/02 10:58:29;;;;;;;1999.90;999.90;;;10.10;99.90;;;;;;4991630;28;20038;-80
2024/01/02 11:01:09;;;;;;;1999.90;999.90;;;10.70;99.90;;;;;;4986366;28;20038;-80
2024/01/02 11:03:57;;;;;;;1999.90;999.90;;;10.20;99.90;;;;;;4988069;28;20042;-79
2024/01/02 11:06:46;;;;;;;1999.90;999.90;;;10.30;99.90;;;;;;5003121;28;20050;-80
2024/01/02 11:09:15;;;;;;;1999.90;999.90;;;10.30;99.90;;;;;;5008348;28;20037;-80
2024/01/02 11:11:42;;;;;;;1999.90;999.90;;;10.30;99.90;;;;;;5014079;28;20041;-80
2024/01/02 11:14:13;;;;;;;1999.90;999.90;;;10.10;99.90;;;;;;5009639;28;20160;-80
2024/01/02 11:16:44;;;;;;;1999.90;999.90;;;10.40;99.90;;;;;;4991436;28;20166;-79
2024/01/02 11:19:13;;;;;;;1999.90;999.90;;;10.40;99.90;;;;;;4988471;28;20062;-79
2024/01/02 11:21:49;;;;;;;1999.90;999.90;;;10.70;99.90;;;;;;5010528;28;20045;-80
2024/01/02 11:24:21;;;;;;;1999.90;999.90;;;10.50;99.90;;;;;;4983833;28;20042;-79
2024/01/02 11:26:49;;;;;;;1999.90;999.90;;;11.10;99.90;;;;;;4993976;28;20042;-79
2024/01/02 11:29:22;;;;;;;1999.90;999.90;;;10.90;99.90;;;;;;5005866;28;20503;-79
2024/01/02 11:31:49;;;;;;;1999.90;999.90;;;10.50;99.90;;;;;;5002325;28;20045;-79
2024/01/02 11:34:38;;;;;;;1999.90;999.90;;;10.70;99.90;;;;;;4986063;28;20053;-79
2024/01/02 11:37:18;;;;;;;1999.90;999.90;;;10.60;99.90;;;;;;4998106;28;20072;-79
2024/01/02 11:40:11;;;;;;;1999.90;999.90;;;10.60;99.90;;;;;;4986127;28;20038;-80
2024/01/02 11:42:53;;;;;;;1999.90;999.90;;;10.60;99.90;;;;;;5003921;28;20070;-81
2024/01/02 11:45:21;;;;;;;1999.90;999.90;;;10.60;99.90;;;;;;5006738;28;20575;-80
2024/01/02 11:48:10;;;;;;;1999.90;999.90;;;10.60;99.90;;;;;;4986486;28;20101;-80
2024/01/02 11:50:59;;;;;;;1999.90;999.90;;;10.60;99.90;;;;;;5002712;28;20053;-80
2024/01/02 11:53:24;;;;;;;1999.90;999.90;;;10.60;99.90;;;;;;4987951;28;20033;-80
2024/01/02 11:56:08;;;;;;;1999.90;999.90;;;10.60;99.90;;;;;;5004128;28;20115;-80
2024/01/02 11:58:50;;;;;;;1999.90;999.90;;;10.60;99.90;;;;;;4992013;28;20050;-79
2024/01/02 12:01:32;;;;;;;1999.90;999.90;;;10.50;99.90;;;;;;5010831;28;20042;-80
2024/01/02 12:04:01;;;;;;;1999.90;999.90;;;10.50;99.90;;;;;;5006924;28;20305;-80
2024/01/02 12:06:51;;;;;;;1999.90;999.90;;;10.60;99.90;;;;;;4986153;28;20045;-79
2024/01/02 12:09:18;;;;;;;1999.90;999.90;;;10.60;99.90;;;;;;5005713;28;20502;-79
2024/01/02 12:11:52;;;;;;;1999.90;999.90;;;10.60;99.90;;;;;;5006395;28;20514;-80
2024/01/02 12:14:49;;;;;;;1999.90;999.90;;;10.60;99.90;;;;;;4989136;28;20105;-80
2024/01/02 12:17:18;;;;;;;1999.90;999.90;;;10.60;99.90;;;;;;4991660;28;20427;-80